Map

Track Data

SID SEASON NUMBER BASIN SUBBASIN NAME ISO_TIME NATURE LAT LON WMO_WIND WMO_PRES WMO_AGENCY TRACK_TYPE DIST2LAND LANDFALL IFLAG USA_AGENCY USA_ATCF_ID USA_LAT USA_LON USA_RECORD USA_STATUS USA_WIND USA_PRES USA_SSHS USA_R34_NE USA_R34_SE USA_R34_SW USA_R34_NW USA_R50_NE USA_R50_SE USA_R50_SW USA_R50_NW USA_R64_NE USA_R64_SE USA_R64_SW USA_R64_NW USA_POCI USA_ROCI USA_RMW USA_EYE TOKYO_LAT TOKYO_LON TOKYO_GRADE TOKYO_WIND TOKYO_PRES TOKYO_R50_DIR TOKYO_R50_LONG TOKYO_R50_SHORT TOKYO_R30_DIR TOKYO_R30_LONG TOKYO_R30_SHORT TOKYO_LAND CMA_LAT CMA_LON CMA_CAT CMA_WIND CMA_PRES HKO_LAT HKO_LON HKO_CAT HKO_WIND HKO_PRES NEWDELHI_LAT NEWDELHI_LON NEWDELHI_GRADE NEWDELHI_WIND NEWDELHI_PRES NEWDELHI_CI NEWDELHI_DP NEWDELHI_POCI REUNION_LAT REUNION_LON REUNION_TYPE REUNION_WIND REUNION_PRES REUNION_TNUM REUNION_CI REUNION_RMW REUNION_R34_NE REUNION_R34_SE REUNION_R34_SW REUNION_R34_NW REUNION_R50_NE REUNION_R50_SE REUNION_R50_SW REUNION_R50_NW REUNION_R64_NE REUNION_R64_SE REUNION_R64_SW REUNION_R64_NW BOM_LAT BOM_LON BOM_TYPE BOM_WIND BOM_PRES BOM_TNUM BOM_CI BOM_RMW BOM_R34_NE BOM_R34_SE BOM_R34_SW BOM_R34_NW BOM_R50_NE BOM_R50_SE BOM_R50_SW BOM_R50_NW BOM_R64_NE BOM_R64_SE BOM_R64_SW BOM_R64_NW BOM_ROCI BOM_POCI BOM_EYE BOM_POS_METHOD BOM_PRES_METHOD NADI_LAT NADI_LON NADI_CAT NADI_WIND NADI_PRES WELLINGTON_LAT WELLINGTON_LON WELLINGTON_WIND WELLINGTON_PRES DS824_LAT DS824_LON DS824_STAGE DS824_WIND DS824_PRES TD9636_LAT TD9636_LON TD9636_STAGE TD9636_WIND TD9636_PRES TD9635_LAT TD9635_LON TD9635_WIND TD9635_PRES TD9635_ROCI NEUMANN_LAT NEUMANN_LON NEUMANN_CLASS NEUMANN_WIND NEUMANN_PRES MLC_LAT MLC_LON MLC_CLASS MLC_WIND MLC_PRES USA_GUST BOM_GUST BOM_GUST_PER REUNION_GUST REUNION_GUST_PER USA_SEAHGT USA_SEARAD_NE USA_SEARAD_SE USA_SEARAD_SW USA_SEARAD_NW STORM_SPEED STORM_DIR
1954212N26133 1954 37 WP MM NOT_NAMED 1954-07-31 06:00:00 TS 26.0000 133.000 main 601 601 __O___________ -1 26.0000 133.000 0 1006 7 227
1954212N26133 1954 37 WP MM NOT_NAMED 1954-07-31 09:00:00 TS 25.7623 132.713 main 612 612 __P___________ -1 25.7623 132.713 0 1005 8 232
1954212N26133 1954 37 WP MM NOT_NAMED 1954-07-31 12:00:00 TS 25.5000 132.300 main 633 631 __O___________ -1 25.5000 132.300 0 1005 11 239
1954212N26133 1954 37 WP MM NOT_NAMED 1954-07-31 15:00:00 TS 25.2128 131.687 main 654 652 __P___________ -1 25.2128 131.687 0 1005 13 247
1954212N26133 1954 37 WP MM NOT_NAMED 1954-07-31 18:00:00 TS 25.0000 131.000 main 670 669 __O___________ -1 25.0000 131.000 0 1005 12 259
1954212N26133 1954 37 WP MM NOT_NAMED 1954-07-31 21:00:00 TS 24.9990 130.439 main 670 670 __P___________ -1 24.9990 130.439 0 1004 11 270
1954212N26133 1954 37 WP MM NOT_NAMED 1954-08-01 00:00:00 TS 25.0000 129.800 main 675 675 __O___________ -1 25.0000 129.800 0 1004 14 263
1954212N26133 1954 37 WP MM NOT_NAMED 1954-08-01 03:00:00 TS 24.8184 128.900 main 695 608 __P___________ -1 24.8184 128.900 0 1003 17 253
1954212N26133 1954 37 WP MM NOT_NAMED 1954-08-01 06:00:00 TS 24.5000 128.000 main 608 557 __O___________ -1 24.5000 128.000 1 23 1002 16 239
1954212N26133 1954 37 WP MM NOT_NAMED 1954-08-01 09:00:00 TS 23.9890 127.369 main 557 507 __P___________ -1 23.9890 127.369 1 1002 14 231
1954212N26133 1954 37 WP MM NOT_NAMED 1954-08-01 12:00:00 TS 23.6000 126.800 main 507 442 __O___________ -1 23.6000 126.800 0 1002 11 259
1954212N26133 1954 37 WP MM NOT_NAMED 1954-08-01 15:00:00 TS 23.7718 126.156 main 442 361 __P___________ -1 23.7718 126.156 0 1003 13 283
1954212N26133 1954 37 WP MM NOT_NAMED 1954-08-01 18:00:00 TS 23.9000 125.400 main 361 282 __O___________ -1 23.9000 125.400 0 1004 17 256
1954212N26133 1954 37 WP MM NOT_NAMED 1954-08-01 21:00:00 TS 23.3689 124.387 main 282 219 __P___________ -1 23.3689 124.387 0 1004 21 235
1954212N26133 1954 37 WP MM NOT_NAMED 1954-08-02 00:00:00 TS 22.7000 123.500 main 219 191 __O___________ -1 22.7000 123.500 0 1004 16 229
1954212N26133 1954 37 WP MM NOT_NAMED 1954-08-02 03:00:00 TS 22.3540 123.112 main 191 183 __P___________ -1 22.3540 123.112 0 1004 8 223
1954212N26133 1954 37 WP MM NOT_NAMED 1954-08-02 06:00:00 TS 22.1000 122.900 main 190 175 __O___________ -1 22.1000 122.900 0 1004 8 222
1954212N26133 1954 37 WP MM NOT_NAMED 1954-08-02 09:00:00 TS 21.7999 122.565 main 175 141 __P___________ -1 21.7999 122.565 0 1004 9 227
1954212N26133 1954 37 WP MM NOT_NAMED 1954-08-02 12:00:00 TS 21.5000 122.200 main 141 121 __O___________ -1 21.5000 122.200 0 1004 9 230
1954212N26133 1954 37 WP MM NOT_NAMED 1954-08-02 15:00:00 TS 21.2002 121.807 main 121 113 __P___________ -1 21.2002 121.807 0 1004 10 231
1954212N26133 1954 37 WP MM NOT_NAMED 1954-08-02 18:00:00 TS 20.9000 121.400 main 123 __O___________ -1 20.9000 121.400 0 1004 10 232

Digital Typhoon Data and Search

About IBTrACS Database

This database is a web-friendly format of International Best Track Archive for Climate Stewardship (IBTrACS), a global best track data archive curated by NOAA dating back to 1842.

Updated: 2021-11-26